Stations météo

réclame
Mon MeteoGroup
Leuchtturm Kiel, Allemagne (10044): Température de l'air & dewpoint: 15.02.2018 02:00:00 - 21.02.2018 02:00:00 (CET)Leuchtturm Kiel, Allemagne (10044): Vitesse du vent & gusts: 15.02.2018 02:00:00 - 21.02.2018 02:00:00 (CET)Leuchtturm Kiel, Allemagne (10044): Direction du vent: 15.02.2018 02:00:00 - 21.02.2018 02:00:00 (CET)Leuchtturm Kiel, Allemagne (10044): reduced air pressure: 15.02.2018 02:00:00 - 21.02.2018 02:00:00 (CET)Leuchtturm Kiel, Allemagne (10044): Ensoleillement: 15.02.2018 02:00:00 - 21.02.2018 02:00:00 (CET)
Date & Time tt [°C] td [°C] ff [km/h] ff [knt] fx [km/h] fx [knt] dd ppp [hPa] sd [min]
21.02.2018 02:00:00 2,1 -3,5 18 10 - - E 1027,0 0
21.02.2018 01:00:00 2,1 -2,6 22 12 - - E 1026,7 0
21.02.2018 00:00:00 2,1 -2,6 25 14 - - E 1026,6 0
20.02.2018 23:00:00 2,0 -3,3 29 16 - - E 1026,1 0
20.02.2018 22:00:00 2,1 -3,7 29 16 - - E 1025,6 0
20.02.2018 21:00:00 2,1 -3,4 32 18 - - ENE 1025,1 0
20.02.2018 20:00:00 2,4 -2,6 32 18 - - ENE 1025,0 0
20.02.2018 19:00:00 2,5 -2,4 32 18 - - E 1024,2 0
20.02.2018 18:00:00 2,5 -2,8 32 18 - - E 1023,7 18
20.02.2018 17:00:00 2,5 -2,1 32 18 - - E 1023,2 60
20.02.2018 16:00:00 2,5 -1,4 29 16 - - ENE 1023,1 60
20.02.2018 15:00:00 2,5 -1,8 29 16 - - ENE 1022,9 60
20.02.2018 14:00:00 2,4 -2,6 25 14 - - E 1022,8 60
20.02.2018 13:00:00 2,1 -1,5 29 16 - - E 1022,6 60
20.02.2018 12:00:00 2,0 -0,9 29 16 - - E 1022,3 60
20.02.2018 11:00:00 2,1 -0,1 32 18 - - E 1022,1 54
20.02.2018 10:00:00 2,0 0,4 29 16 - - E 1021,8 12
20.02.2018 09:00:00 1,9 1,1 18 10 - - E 1021,5 0
20.02.2018 08:00:00 2,2 0,9 18 10 - - ESE 1021,1 0
20.02.2018 07:00:00 2,4 1,1 22 12 - - E 1020,8 0
20.02.2018 06:00:00 2,4 0,8 18 10 - - E 1020,6 0
20.02.2018 05:00:00 2,4 0,5 14 8 - - E 1020,5 0
20.02.2018 04:00:00 2,5 1,3 7 4 - - E 1020,4 0
20.02.2018 03:00:00 2,8 -0,4 11 6 - - E 1020,3 0
20.02.2018 02:00:00 2,8 -0,2 7 4 - - SE 1020,2 0
20.02.2018 01:00:00 3,2 -0,2 4 2 - - WSW 1020,0 0
20.02.2018 00:00:00 2,8 0,0 11 6 - - S 1019,8 0
19.02.2018 23:00:00 3,0 0,0 14 8 - - SSE 1019,6 0
19.02.2018 22:00:00 3,4 0,0 14 8 - - SSE 1019,6 0
19.02.2018 21:00:00 3,7 -0,1 11 6 - - SSE 1019,6 0
19.02.2018 20:00:00 4,2 -0,1 14 8 - - S 1019,4 0
19.02.2018 19:00:00 3,6 1,5 11 6 - - SE 1019,5 0
19.02.2018 18:00:00 3,5 0,9 11 6 - - ESE 1019,4 0
19.02.2018 17:00:00 3,2 -0,1 14 8 - - ESE 1019,5 0
19.02.2018 16:00:00 3,1 -0,2 14 8 - - E 1019,3 0
19.02.2018 15:00:00 3,2 -0,6 7 4 - - ESE 1019,6 18
19.02.2018 14:00:00 3,3 -0,7 4 2 - - ESE 1019,7 60
19.02.2018 13:00:00 3,1 -0,2 4 2 - - S 1020,0 60
19.02.2018 12:00:00 2,5 -0,5 11 6 - - SSW 1020,3 42
19.02.2018 11:00:00 1,6 -1,2 14 8 - - S 1020,3 36
19.02.2018 10:00:00 1,3 -1,2 14 8 - - S 1020,4 18
19.02.2018 09:00:00 1,6 -1,0 14 8 - - SSW 1020,6 0
19.02.2018 08:00:00 1,5 -1,0 14 8 - - SSW 1020,7 0
19.02.2018 07:00:00 1,4 -1,3 18 10 - - SSW 1020,7 0
19.02.2018 06:00:00 1,3 -1,5 14 8 - - S 1020,7 0
19.02.2018 05:00:00 1,6 -1,8 18 10 - - SSW 1021,1 0
19.02.2018 04:00:00 1,7 -1,5 18 10 - - SSW 1021,4 0
19.02.2018 03:00:00 2,1 -1,8 18 10 - - SSW 1021,8 0
19.02.2018 02:00:00 2,2 -1,6 22 12 - - SSW 1022,1 0
19.02.2018 01:00:00 2,2 -2,2 25 14 - - S 1022,6 0
19.02.2018 00:00:00 2,3 -2,2 22 12 - - S 1023,2 0
18.02.2018 23:00:00 2,5 -2,2 22 12 - - S 1023,7 0
18.02.2018 22:00:00 2,6 -1,9 18 10 - - S 1024,0 0
18.02.2018 21:00:00 2,7 -1,5 18 10 - - S 1024,3 0
18.02.2018 20:00:00 3,0 -1,8 18 10 - - S 1024,6 0
18.02.2018 19:00:00 3,4 -1,9 14 8 - - S 1025,1 0
18.02.2018 18:00:00 3,9 -1,7 18 10 - - SSW 1025,4 0
18.02.2018 17:00:00 4,2 -1,5 18 10 - - SSW 1025,7 0
18.02.2018 16:00:00 4,1 -1,8 18 10 - - SSW 1025,8 0
18.02.2018 15:00:00 3,8 -2,3 25 14 - - S 1025,9 36
18.02.2018 14:00:00 3,8 -3,2 25 14 - - S 1026,6 60
18.02.2018 13:00:00 3,6 -3,5 25 14 - - SSW 1027,1 54
18.02.2018 12:00:00 3,2 -3,2 29 16 - - SSW 1027,7 42
18.02.2018 11:00:00 2,6 -1,7 22 12 - - SSW 1027,8 12
18.02.2018 10:00:00 1,8 -1,0 22 12 - - SSW 1027,8 0
18.02.2018 09:00:00 1,7 -1,2 25 14 - - SSW 1027,7 0
18.02.2018 08:00:00 1,6 -2,9 25 14 - - S 1027,6 0
18.02.2018 07:00:00 1,8 -3,0 18 10 - - S 1027,5 0
18.02.2018 06:00:00 1,9 -2,5 14 8 - - S 1027,3 0
18.02.2018 05:00:00 2,5 -3,4 14 8 - - SSE 1027,1 0
18.02.2018 04:00:00 3,1 -2,6 11 6 - - SSW 1027,4 0
18.02.2018 03:00:00 3,4 -3,2 18 10 - - S 1027,3 0
18.02.2018 02:00:00 3,4 -3,6 11 6 - - SSW 1027,4 0
18.02.2018 01:00:00 3,1 -2,3 14 8 - - SW 1027,3 0
18.02.2018 00:00:00 3,3 -1,4 11 6 - - SSW 1027,2 0
17.02.2018 23:00:00 3,8 -2,8 7 4 - - S 1026,9 0
17.02.2018 22:00:00 3,9 -3,6 4 2 - - W 1026,5 0
17.02.2018 21:00:00 4,0 -3,6 7 4 - - WSW 1026,1 0
17.02.2018 20:00:00 4,1 -3,3 4 2 - - ESE 1025,9 0
17.02.2018 19:00:00 4,2 -3,1 7 4 - - E 1025,7 0
17.02.2018 18:00:00 3,9 -1,2 4 2 - - NE 1025,4 0
17.02.2018 17:00:00 3,7 1,6 4 2 - - WNW 1025,2 0
17.02.2018 16:00:00 3,6 2,2 7 4 - - W 1024,9 0
17.02.2018 15:00:00 3,5 2,2 7 4 - - W 1024,7 0
17.02.2018 14:00:00 3,2 2,0 11 6 - - W 1024,8 0
17.02.2018 13:00:00 3,3 1,9 11 6 - - W 1024,8 0
17.02.2018 12:00:00 2,6 1,7 7 4 - - W 1024,8 0
17.02.2018 11:00:00 2,2 1,5 11 6 - - SSW 1024,7 0
17.02.2018 10:00:00 1,7 1,2 14 8 - - SW 1024,6 0
17.02.2018 09:00:00 1,6 1,6 11 6 - - WSW 1024,5 0
17.02.2018 08:00:00 1,6 1,5 11 6 - - WSW 1024,5 0
17.02.2018 07:00:00 1,7 1,7 11 6 - - SW 1024,6 0
17.02.2018 06:00:00 1,8 1,3 18 10 - - WSW 1024,5 0
17.02.2018 05:00:00 2,4 1,8 18 10 - - SW 1024,5 0
17.02.2018 04:00:00 2,7 2,0 18 10 - - W 1024,7 0
17.02.2018 03:00:00 2,8 2,0 25 14 - - W 1024,8 0
17.02.2018 02:00:00 3,2 2,2 25 14 - - W 1024,7 0
17.02.2018 01:00:00 3,7 2,4 29 16 - - W 1024,3 0
17.02.2018 00:00:00 3,7 2,3 29 16 - - WSW 1024,2 0
16.02.2018 23:00:00 3,7 2,3 32 18 - - WSW 1023,9 0
16.02.2018 22:00:00 3,8 2,2 32 18 - - W 1023,6 0
16.02.2018 21:00:00 4,0 2,1 32 18 - - W 1023,2 0
16.02.2018 20:00:00 4,2 2,2 32 18 - - WSW 1022,7 0
16.02.2018 19:00:00 4,3 2,0 36 19 - - WSW 1022,4 0
16.02.2018 18:00:00 4,5 1,7 36 19 47 25 WSW 1021,7 0
16.02.2018 17:00:00 4,7 1,7 40 21 50 27 WSW 1021,0 0
16.02.2018 16:00:00 5,0 1,8 47 25 - - WSW 1020,5 0
16.02.2018 15:00:00 5,3 1,5 47 25 58 31 WSW 1020,0 24
16.02.2018 14:00:00 5,3 1,5 43 23 54 29 WSW 1019,8 60
16.02.2018 13:00:00 5,1 1,6 43 23 - - WSW 1019,4 42
16.02.2018 12:00:00 4,3 1,5 32 18 - - WSW 1019,3 60
16.02.2018 11:00:00 3,5 1,5 32 18 - - SW 1018,6 54
16.02.2018 10:00:00 2,9 1,2 32 18 - - SW 1017,8 48
16.02.2018 09:00:00 2,3 0,5 32 18 - - SW 1017,1 30
16.02.2018 08:00:00 2,2 0,3 32 18 - - SW 1016,5 0
16.02.2018 07:00:00 2,2 0,4 32 18 - - SW 1015,8 0
16.02.2018 06:00:00 2,3 0,4 32 18 - - SW 1015,4 0
16.02.2018 05:00:00 2,5 0,8 32 18 - - SW 1014,9 0
16.02.2018 04:00:00 2,7 0,9 36 19 - - SW 1014,3 0
16.02.2018 03:00:00 2,8 0,6 36 19 - - SW 1013,7 0
16.02.2018 02:00:00 2,7 1,5 29 16 - - SW 1013,3 0
16.02.2018 01:00:00 2,3 2,1 29 16 - - SW 1013,0 0
16.02.2018 00:00:00 2,1 1,9 32 18 - - SW 1012,2 0
15.02.2018 23:00:00 2,1 1,8 32 18 - - SW 1011,8 0
15.02.2018 22:00:00 1,6 1,1 32 18 - - SW 1011,1 0
15.02.2018 21:00:00 1,2 0,7 40 21 50 27 SSW 1011,0 0
15.02.2018 20:00:00 0,1 -0,3 40 21 50 27 S 1010,8 0
15.02.2018 19:00:00 0,7 -0,7 43 23 - - S 1010,9 0
15.02.2018 18:00:00 0,6 -0,8 47 25 58 31 SSE 1010,8 0
15.02.2018 17:00:00 0,7 -1,3 50 27 68 37 S 1011,1 0
15.02.2018 16:00:00 0,6 -1,8 54 29 - - SSE 1010,8 0
15.02.2018 15:00:00 0,3 -2,0 50 27 65 35 SSE 1011,5 0
15.02.2018 14:00:00 0,0 -2,2 50 27 65 35 SSE 1012,1 0
15.02.2018 13:00:00 1,2 -4,1 43 23 - - SSE 1012,5 0
15.02.2018 12:00:00 1,1 -4,6 54 29 72 39 SSE 1012,5 0
15.02.2018 11:00:00 1,2 -5,0 58 31 72 39 SSE 1013,2 0
15.02.2018 10:00:00 1,0 -4,3 50 27 - - SSE 1014,0 0
15.02.2018 09:00:00 0,5 -4,2 54 29 61 33 SE 1014,6 0
15.02.2018 08:00:00 0,8 -4,2 47 25 65 35 SE 1015,3 0
15.02.2018 07:00:00 0,8 -4,3 47 25 - - SSE 1015,5 0
15.02.2018 06:00:00 0,7 -4,2 47 25 58 31 SSE 1016,1 0
15.02.2018 05:00:00 0,8 -4,2 47 25 61 33 SSE 1016,3 0
15.02.2018 04:00:00 0,9 -4,3 47 25 - - SSE 1016,9 0
15.02.2018 03:00:00 1,0 -3,9 47 25 58 31 SSE 1017,6 0
15.02.2018 02:00:00 0,9 -3,7 43 23 50 27 SSE 1018,2 0

tt = Température de l'air
td = dewpoint
ff = Vitesse du vent
fx = gusts
dd = Direction du vent
ppp = reduced air pressure
sd = Ensoleillement

stations d'obs. à proximité